createdAt,value
2022-10-14T00:01:15.471Z,32.17
2022-10-14T00:03:44.403Z,32.35
2022-10-14T00:08:47.331Z,32.15
2022-10-14T00:11:18.636Z,30.75
2022-10-14T00:13:46.934Z,32.40
2022-10-14T00:16:19.897Z,32.55
2022-10-14T00:18:48.283Z,31.27
2022-10-14T00:21:17.873Z,33.63
2022-10-14T00:23:46.189Z,36.45
2022-10-14T00:26:19.256Z,34.17
2022-10-14T00:28:48.313Z,32.20
2022-10-14T00:31:16.762Z,32.22
2022-10-14T00:33:48.653Z,34.72
2022-10-14T00:36:19.726Z,35.00
2022-10-14T00:38:48.376Z,36.10
2022-10-14T00:41:18.121Z,32.42
2022-10-14T00:44:00.226Z,36.22
2022-10-14T00:46:31.020Z,32.35
2022-10-14T00:49:07.243Z,31.50
2022-10-14T00:51:39.022Z,31.95
2022-10-14T00:54:07.316Z,29.92
2022-10-14T00:56:36.498Z,33.00
2022-10-14T00:59:10.055Z,30.83
2022-10-14T01:01:38.196Z,30.23
2022-10-14T01:04:06.308Z,31.65
2022-10-14T01:06:45.060Z,31.02
2022-10-14T01:09:23.340Z,30.63
2022-10-14T01:12:27.607Z,29.60
2022-10-14T01:15:00.073Z,31.35
2022-10-14T01:17:37.812Z,30.17
2022-10-14T01:20:44.180Z,33.47
2022-10-14T01:24:05.123Z,31.13
2022-10-14T01:26:53.183Z,30.13
2022-10-14T01:29:40.612Z,29.50
2022-10-14T01:32:14.783Z,30.10
2022-10-14T01:34:52.366Z,27.92
2022-10-14T01:37:27.653Z,28.98
2022-10-14T01:40:00.072Z,29.38
2022-10-14T01:42:34.795Z,28.42
2022-10-14T01:45:08.654Z,28.92
2022-10-14T01:47:39.630Z,25.77
2022-10-14T01:50:12.661Z,25.17
2022-10-14T01:52:45.883Z,25.33
2022-10-14T01:55:19.276Z,21.92
2022-10-14T01:57:51.249Z,23.35
2022-10-14T02:00:20.970Z,25.80
2022-10-14T02:02:49.152Z,25.73
2022-10-14T02:05:23.319Z,25.25
2022-10-14T02:07:58.505Z,25.25
2022-10-14T02:10:34.227Z,25.42
2022-10-14T02:13:14.543Z,27.80
2022-10-14T02:18:28.419Z,27.05
2022-10-14T02:21:01.096Z,28.63
2022-10-14T02:23:37.498Z,33.22
2022-10-14T02:26:06.919Z,36.25
2022-10-14T02:28:35.912Z,33.87
2022-10-14T02:31:08.661Z,37.17
2022-10-14T02:33:40.515Z,38.22
2022-10-14T02:36:11.210Z,41.67
2022-10-14T02:38:40.572Z,40.97
2022-10-14T02:41:15.073Z,42.20
2022-10-14T02:43:43.050Z,42.75
2022-10-14T02:46:12.667Z,43.50
2022-10-14T02:48:41.242Z,41.53
2022-10-14T02:51:09.062Z,46.22
2022-10-14T02:53:39.256Z,46.15
2022-10-14T02:56:08.079Z,46.53
2022-10-14T02:58:36.023Z,46.80
2022-10-14T03:01:04.990Z,48.65
2022-10-14T03:03:35.537Z,47.05
2022-10-14T03:06:03.967Z,44.38
2022-10-14T03:08:32.034Z,44.28
2022-10-14T03:11:00.604Z,45.33
2022-10-14T03:13:28.966Z,42.80
2022-10-14T03:15:56.971Z,44.65
2022-10-14T03:18:26.261Z,46.40
2022-10-14T03:21:01.370Z,45.25
2022-10-14T03:23:35.721Z,44.03
2022-10-14T03:26:03.962Z,43.35
2022-10-14T03:28:39.929Z,44.58
2022-10-14T03:31:21.253Z,43.00
2022-10-14T03:34:19.396Z,43.30
2022-10-14T03:36:51.762Z,43.22
2022-10-14T03:39:20.462Z,46.05
2022-10-14T03:41:52.630Z,39.78
2022-10-14T03:44:28.331Z,45.67
2022-10-14T03:47:34.558Z,47.13
2022-10-14T03:50:04.248Z,47.97
2022-10-14T03:52:44.875Z,44.63
2022-10-14T03:55:22.402Z,47.92
2022-10-14T03:57:52.218Z,46.15
2022-10-14T04:00:21.126Z,47.65
2022-10-14T04:02:58.362Z,42.28
2022-10-14T04:05:34.963Z,42.95
2022-10-14T04:08:10.942Z,47.95
2022-10-14T04:10:42.095Z,49.33
2022-10-14T04:13:13.338Z,49.05
2022-10-14T04:15:41.960Z,46.67
2022-10-14T04:18:23.610Z,44.78
2022-10-14T04:20:53.808Z,45.45
2022-10-14T04:23:25.400Z,46.55
2022-10-14T04:25:58.027Z,46.35
2022-10-14T04:28:26.529Z,50.10
2022-10-14T04:31:14.702Z,49.58
2022-10-14T04:33:53.139Z,50.95
2022-10-14T04:36:28.750Z,49.40
2022-10-14T04:39:00.746Z,47.20
2022-10-14T04:41:28.778Z,51.05
2022-10-14T04:43:59.257Z,49.97
2022-10-14T04:46:36.218Z,49.90
2022-10-14T04:49:04.907Z,49.72
2022-10-14T04:51:39.329Z,51.22
2022-10-14T04:54:20.290Z,48.55
2022-10-14T04:56:56.547Z,47.22
2022-10-14T04:59:24.441Z,49.03
2022-10-14T05:01:58.668Z,46.67
2022-10-14T05:04:35.825Z,47.63
2022-10-14T05:07:04.544Z,46.70
2022-10-14T05:09:34.450Z,44.60
2022-10-14T05:12:03.097Z,43.70
2022-10-14T05:14:40.206Z,45.55
2022-10-14T05:17:17.213Z,45.50
2022-10-14T05:19:45.054Z,46.42
2022-10-14T05:22:13.800Z,43.88
2022-10-14T05:24:47.131Z,45.47
2022-10-14T05:27:15.489Z,47.28
2022-10-14T05:29:44.366Z,45.67
2022-10-14T05:32:12.221Z,48.42
2022-10-14T05:34:44.643Z,49.33
2022-10-14T05:37:18.937Z,45.67
2022-10-14T05:39:52.549Z,44.22
2022-10-14T05:42:24.740Z,43.33
2022-10-14T05:44:55.263Z,42.90
2022-10-14T05:47:24.305Z,43.05
2022-10-14T05:49:57.662Z,40.65
2022-10-14T05:52:25.984Z,42.63
2022-10-14T05:54:56.321Z,39.80
2022-10-14T05:57:28.518Z,39.05
2022-10-14T05:59:56.599Z,39.75
2022-10-14T06:02:24.598Z,38.40
2022-10-14T06:04:54.867Z,39.83
2022-10-14T06:09:52.670Z,35.30
2022-10-14T06:12:23.063Z,39.53
2022-10-14T06:14:51.921Z,34.72
2022-10-14T06:17:20.125Z,34.97
2022-10-14T06:19:48.199Z,37.15
2022-10-14T06:22:16.164Z,35.55
2022-10-14T06:24:43.936Z,39.42
2022-10-14T06:27:11.795Z,40.92
2022-10-14T06:29:41.047Z,39.78
2022-10-14T06:32:10.619Z,36.67
2022-10-14T06:34:38.392Z,38.97
2022-10-14T06:37:06.286Z,38.22
2022-10-14T06:39:34.179Z,38.17
2022-10-14T06:42:03.612Z,39.35
2022-10-14T06:44:31.428Z,39.88
2022-10-14T06:47:00.855Z,39.08
2022-10-14T06:49:28.806Z,41.17
2022-10-14T06:51:56.652Z,38.10
2022-10-14T06:54:24.554Z,35.90
2022-10-14T06:56:52.617Z,39.28
2022-10-14T06:59:20.709Z,36.83
2022-10-14T07:01:48.608Z,35.88
2022-10-14T07:04:18.065Z,38.47
2022-10-14T07:06:45.973Z,38.30
2022-10-14T07:09:14.443Z,39.75
2022-10-14T07:11:43.487Z,40.03
2022-10-14T07:14:11.690Z,40.53
2022-10-14T07:16:39.753Z,39.75
2022-10-14T07:19:07.634Z,36.00
2022-10-14T07:21:36.723Z,34.55
2022-10-14T07:24:04.812Z,34.03
2022-10-14T07:26:32.917Z,32.65
2022-10-14T07:29:00.879Z,33.47
2022-10-14T07:31:29.939Z,30.63
2022-10-14T07:33:58.365Z,28.48
2022-10-14T07:36:26.307Z,26.40
2022-10-14T07:38:55.710Z,27.30
2022-10-14T07:41:25.417Z,26.67
2022-10-14T07:43:55.197Z,39.83
2022-10-14T07:46:29.641Z,27.13
2022-10-14T07:48:58.319Z,24.60
2022-10-14T07:51:27.269Z,24.63
2022-10-14T07:53:58.056Z,24.90
2022-10-14T07:56:26.736Z,24.45
2022-10-14T07:58:55.467Z,31.40
2022-10-14T08:01:24.786Z,21.58
2022-10-14T08:03:53.315Z,20.10
2022-10-14T08:06:21.381Z,19.25
2022-10-14T08:08:49.440Z,18.98
2022-10-14T08:11:21.807Z,17.38
2022-10-14T08:13:50.697Z,16.10
2022-10-14T08:16:21.231Z,17.08
2022-10-14T08:18:49.705Z,18.02
2022-10-14T08:21:26.049Z,16.83
2022-10-14T08:23:54.912Z,14.77
2022-10-14T08:26:29.246Z,13.82
2022-10-14T08:28:57.474Z,14.18
2022-10-14T08:31:25.788Z,13.20
2022-10-14T08:33:53.688Z,13.40
2022-10-14T08:36:22.535Z,13.23
2022-10-14T08:38:53.047Z,11.27
2022-10-14T08:41:43.305Z,11.60
2022-10-14T08:44:18.466Z,10.90
2022-10-14T08:46:52.264Z,11.60
2022-10-14T08:49:27.694Z,10.73
2022-10-14T08:52:10.854Z,9.23
2022-10-14T08:54:43.592Z,10.55
2022-10-14T08:57:21.938Z,10.00
2022-10-14T08:59:51.720Z,8.48
2022-10-14T09:02:34.907Z,10.13
2022-10-14T09:05:05.602Z,9.35
2022-10-14T09:07:35.995Z,8.65
2022-10-14T09:10:07.803Z,8.10
2022-10-14T09:12:38.268Z,7.85
2022-10-14T09:15:14.632Z,8.27
2022-10-14T09:17:46.942Z,9.70
2022-10-14T09:20:19.516Z,8.48
2022-10-14T09:22:57.885Z,10.82
2022-10-14T09:25:25.838Z,7.25
2022-10-14T09:27:55.087Z,7.13
2022-10-14T09:30:22.901Z,7.90
2022-10-14T09:32:53.389Z,7.15
2022-10-14T09:35:25.963Z,7.53
2022-10-14T09:37:54.271Z,7.28
2022-10-14T09:40:29.817Z,6.95
2022-10-14T09:43:03.606Z,6.70
2022-10-14T09:45:57.645Z,6.38
2022-10-14T09:51:06.460Z,6.15
2022-10-14T09:53:39.192Z,6.53
2022-10-14T09:56:10.363Z,6.35
2022-10-14T09:58:47.391Z,5.75
2022-10-14T10:01:18.652Z,6.07
2022-10-14T10:03:48.538Z,6.13
2022-10-14T10:06:20.274Z,5.28
2022-10-14T10:08:57.257Z,5.88
2022-10-14T10:11:29.523Z,6.32
2022-10-14T10:13:58.856Z,5.63
2022-10-14T10:16:31.262Z,5.35
2022-10-14T10:19:03.597Z,5.50
2022-10-14T10:21:32.047Z,5.13
2022-10-14T10:24:01.426Z,4.68
2022-10-14T10:26:32.852Z,5.10
2022-10-14T10:29:04.948Z,6.65
2022-10-14T10:31:48.507Z,5.38
2022-10-14T10:34:45.239Z,4.00
2022-10-14T10:37:25.495Z,5.60
2022-10-14T10:40:09.242Z,4.72
2022-10-14T10:42:51.418Z,3.70
2022-10-14T10:45:36.374Z,3.45
2022-10-14T10:48:10.974Z,4.70
2022-10-14T10:50:48.312Z,2.97
2022-10-14T10:53:41.146Z,2.83
2022-10-14T10:56:22.629Z,8.13
2022-10-14T10:59:07.619Z,3.28
2022-10-14T11:01:52.124Z,2.85
2022-10-14T11:04:34.753Z,3.17
2022-10-14T11:07:31.453Z,3.78
2022-10-14T11:10:31.440Z,2.22
2022-10-14T11:13:07.803Z,2.08
2022-10-14T11:15:52.118Z,1.90
2022-10-14T11:18:31.506Z,2.33
2022-10-14T11:21:19.553Z,2.90
2022-10-14T11:24:03.629Z,1.95
2022-10-14T11:26:47.596Z,2.50
2022-10-14T11:29:31.783Z,2.63
2022-10-14T11:32:10.198Z,1.58
2022-10-14T11:35:07.041Z,1.95
2022-10-14T11:37:48.964Z,1.40
2022-10-14T11:40:24.885Z,1.15
2022-10-14T11:43:06.744Z,1.33
2022-10-14T11:45:50.376Z,1.27
2022-10-14T11:48:28.641Z,1.20
2022-10-14T11:51:03.986Z,1.30
2022-10-14T11:53:47.832Z,1.40
2022-10-14T11:56:29.974Z,8.00
2022-10-14T11:59:41.628Z,1.95
2022-10-14T12:02:44.743Z,2.03
2022-10-14T12:05:22.376Z,1.73
2022-10-14T12:08:07.988Z,1.42
2022-10-14T12:10:43.708Z,1.23
2022-10-14T12:13:22.848Z,1.20
2022-10-14T12:15:54.446Z,1.30
2022-10-14T12:18:24.355Z,1.73
2022-10-14T12:21:00.181Z,1.67
2022-10-14T12:23:38.691Z,1.90
2022-10-14T12:26:19.395Z,1.70
2022-10-14T12:28:48.967Z,1.52
2022-10-14T12:31:33.773Z,2.00
2022-10-14T12:34:27.546Z,1.83
2022-10-14T12:36:55.492Z,2.00
2022-10-14T12:39:32.434Z,1.67
2022-10-14T12:42:03.536Z,1.90
2022-10-14T12:44:42.888Z,2.25
2022-10-14T12:47:21.243Z,7.83
2022-10-14T12:49:52.024Z,5.25
2022-10-14T12:52:27.462Z,2.40
2022-10-14T12:54:57.563Z,2.72
2022-10-14T12:57:30.663Z,5.95
2022-10-14T13:00:02.805Z,5.85
2022-10-14T13:02:34.178Z,2.78
2022-10-14T13:05:07.703Z,2.75
2022-10-14T13:07:46.332Z,2.85
2022-10-14T13:10:52.435Z,2.53
2022-10-14T13:13:59.024Z,2.38
2022-10-14T13:16:55.812Z,2.55
2022-10-14T13:19:44.683Z,2.80
2022-10-14T13:22:40.733Z,3.35
2022-10-14T13:25:18.314Z,4.20
2022-10-14T13:28:02.251Z,3.75
2022-10-14T13:30:39.383Z,4.25
2022-10-14T13:33:17.383Z,5.05
2022-10-14T13:35:53.931Z,4.80
2022-10-14T13:38:24.792Z,4.22
2022-10-14T13:40:55.276Z,6.40
2022-10-14T13:43:27.998Z,6.53
2022-10-14T13:46:07.565Z,3.85
2022-10-14T13:48:39.095Z,3.95
2022-10-14T13:51:31.946Z,4.10
2022-10-14T13:54:16.633Z,4.80
2022-10-14T13:59:43.168Z,4.97
2022-10-14T14:02:15.865Z,4.63
2022-10-14T14:04:51.600Z,9.02
2022-10-14T14:08:08.523Z,5.53
2022-10-14T14:10:12.057Z,6.00
2022-10-14T14:12:43.531Z,4.13
2022-10-14T14:15:20.861Z,5.13
2022-10-14T14:17:50.544Z,5.53
2022-10-14T14:20:21.651Z,4.75
2022-10-14T14:22:51.434Z,3.45
2022-10-14T14:25:35.336Z,3.83
2022-10-14T14:28:15.056Z,3.70
2022-10-14T14:30:54.656Z,4.53
2022-10-14T14:33:30.657Z,4.38
2022-10-14T14:36:00.762Z,3.92
2022-10-14T14:38:33.425Z,4.50
2022-10-14T14:41:03.147Z,4.50
2022-10-14T14:43:36.525Z,4.13
2022-10-14T14:46:07.247Z,4.43
2022-10-14T14:48:38.400Z,4.00
2022-10-14T14:51:14.253Z,4.25
2022-10-14T14:53:42.721Z,4.80
2022-10-14T14:56:19.079Z,4.78
2022-10-14T14:58:52.262Z,5.10
2022-10-14T15:01:23.228Z,4.35
2022-10-14T15:04:12.152Z,5.50
2022-10-14T15:06:50.916Z,5.18
2022-10-14T15:09:25.157Z,5.85
2022-10-14T15:11:55.661Z,5.80
2022-10-14T15:14:33.615Z,6.03
2022-10-14T15:17:05.624Z,5.70
2022-10-14T15:19:38.930Z,7.85
2022-10-14T15:22:22.820Z,7.70
2022-10-14T15:25:08.499Z,7.22
2022-10-14T15:27:47.620Z,7.60
2022-10-14T15:30:34.551Z,7.00
2022-10-14T15:33:05.618Z,6.10
2022-10-14T15:35:36.874Z,6.82
2022-10-14T15:38:15.934Z,6.38
2022-10-14T15:40:44.705Z,6.90
2022-10-14T15:43:17.609Z,6.65
2022-10-14T15:46:12.622Z,6.47
2022-10-14T15:48:41.273Z,6.55
2022-10-14T15:51:16.424Z,8.07
2022-10-14T15:53:44.399Z,11.15
2022-10-14T15:56:12.590Z,21.08
2022-10-14T15:58:40.659Z,10.63
2022-10-14T16:01:09.044Z,8.68
2022-10-14T16:03:40.837Z,8.10
2022-10-14T16:06:12.591Z,9.57
2022-10-14T16:08:42.768Z,8.63
2022-10-14T16:11:20.708Z,8.70
2022-10-14T16:13:48.627Z,9.52
2022-10-14T16:16:20.276Z,9.27
2022-10-14T16:18:48.094Z,9.23
2022-10-14T16:21:18.371Z,9.25
2022-10-14T16:26:14.431Z,9.60
2022-10-14T16:28:42.402Z,10.35
2022-10-14T16:31:13.552Z,10.20
2022-10-14T16:33:44.772Z,10.90
2022-10-14T16:36:15.757Z,9.23
2022-10-14T16:38:45.420Z,9.20
2022-10-14T16:41:13.601Z,8.18
2022-10-14T16:43:41.506Z,8.27
2022-10-14T16:46:11.936Z,8.15
2022-10-14T16:48:42.740Z,8.50
2022-10-14T16:51:10.732Z,8.57
2022-10-14T16:53:49.015Z,8.77
2022-10-14T16:56:37.488Z,8.52
2022-10-14T16:59:07.671Z,8.65
2022-10-14T17:01:35.605Z,10.30
2022-10-14T17:04:04.737Z,9.73
2022-10-14T17:06:32.915Z,10.60
2022-10-14T17:09:01.115Z,15.85
2022-10-14T17:11:31.076Z,10.80
2022-10-14T17:14:00.660Z,11.70
2022-10-14T17:16:29.818Z,12.02
2022-10-14T17:18:58.845Z,17.50
2022-10-14T17:21:29.326Z,19.20
2022-10-14T17:24:01.404Z,17.02
2022-10-14T17:26:32.257Z,17.95
2022-10-14T17:29:00.756Z,15.77
2022-10-14T17:31:29.424Z,26.08
2022-10-14T17:33:57.482Z,17.15
2022-10-14T17:36:28.036Z,37.38
2022-10-14T17:38:57.520Z,30.08
2022-10-14T17:41:26.917Z,16.73
2022-10-14T17:43:58.281Z,16.20
2022-10-14T17:46:29.175Z,12.88
2022-10-14T17:48:59.612Z,13.13
2022-10-14T17:51:29.134Z,15.07
2022-10-14T17:53:58.559Z,15.18
2022-10-14T17:56:27.545Z,16.75
2022-10-14T17:58:58.676Z,17.80
2022-10-14T18:01:37.349Z,14.32
2022-10-14T18:04:11.917Z,14.45
2022-10-14T18:06:39.768Z,11.52
2022-10-14T18:09:09.806Z,12.93
2022-10-14T18:12:07.166Z,10.77
2022-10-14T18:14:31.268Z,11.85
2022-10-14T18:16:59.845Z,12.25
2022-10-14T18:19:28.116Z,12.77
2022-10-14T18:21:55.931Z,10.63
2022-10-14T18:24:23.797Z,11.15
2022-10-14T18:26:52.068Z,10.57
2022-10-14T18:29:20.075Z,10.95
2022-10-14T18:31:49.967Z,10.80
2022-10-14T18:34:18.064Z,9.13
2022-10-14T18:36:48.068Z,8.65
2022-10-14T18:39:16.147Z,8.20
2022-10-14T18:41:44.213Z,7.93
2022-10-14T18:44:12.300Z,13.95
2022-10-14T18:46:41.735Z,12.77
2022-10-14T18:49:12.424Z,8.07
2022-10-14T18:51:41.352Z,9.55
2022-10-14T18:54:13.350Z,6.65
2022-10-14T18:56:41.367Z,6.82
2022-10-14T18:59:11.929Z,6.38
2022-10-14T19:01:40.543Z,5.82
2022-10-14T19:04:13.124Z,6.22
2022-10-14T19:06:41.487Z,5.72
2022-10-14T19:09:12.567Z,4.80
2022-10-14T19:11:41.290Z,4.82
2022-10-14T19:14:09.833Z,5.18
2022-10-14T19:16:39.716Z,4.63
2022-10-14T19:19:11.623Z,5.13
2022-10-14T19:21:41.790Z,5.80
2022-10-14T19:24:11.297Z,4.80
2022-10-14T19:26:41.407Z,4.78
2022-10-14T19:29:11.700Z,5.03
2022-10-14T19:31:40.847Z,5.03
2022-10-14T19:34:11.158Z,5.38
2022-10-14T19:39:12.322Z,5.25
2022-10-14T19:41:43.205Z,5.70
2022-10-14T19:44:11.987Z,5.40
2022-10-14T19:46:40.505Z,6.00
2022-10-14T19:49:08.531Z,5.22
2022-10-14T19:51:36.471Z,5.50
2022-10-14T19:54:04.469Z,5.55
2022-10-14T19:56:33.874Z,5.50
2022-10-14T19:59:01.846Z,5.53
2022-10-14T20:01:31.242Z,5.85
2022-10-14T20:04:01.157Z,6.07
2022-10-14T20:06:33.742Z,6.63
2022-10-14T20:09:01.684Z,6.82
2022-10-14T20:11:29.993Z,7.25
2022-10-14T20:13:59.215Z,5.97
2022-10-14T20:16:27.490Z,6.18
2022-10-14T20:18:55.950Z,6.45
2022-10-14T20:21:23.922Z,6.38
2022-10-14T20:23:51.729Z,8.45
2022-10-14T20:26:21.960Z,7.35
2022-10-14T20:31:21.008Z,7.55
2022-10-14T20:33:49.459Z,9.85
2022-10-14T20:36:19.743Z,10.68
2022-10-14T20:41:18.919Z,6.78
2022-10-14T20:43:47.376Z,6.78
2022-10-14T20:46:15.622Z,6.32
2022-10-14T20:48:45.568Z,8.45
2022-10-14T20:51:15.947Z,7.20
2022-10-14T20:53:43.953Z,7.75
2022-10-14T20:56:13.366Z,8.90
2022-10-14T20:58:41.515Z,11.27
2022-10-14T21:01:11.778Z,10.80
2022-10-14T21:06:10.670Z,8.52
2022-10-14T21:08:39.615Z,9.02
2022-10-14T21:11:13.683Z,8.18
2022-10-14T21:13:46.248Z,8.40
2022-10-14T21:16:16.087Z,7.80
2022-10-14T21:18:46.837Z,6.45
2022-10-14T21:21:17.083Z,5.97
2022-10-14T21:26:12.928Z,17.25
2022-10-14T21:28:41.218Z,23.48
2022-10-14T21:31:10.930Z,18.13
2022-10-14T21:33:38.945Z,9.38
2022-10-14T21:36:09.003Z,6.63
2022-10-14T21:38:38.626Z,7.00
2022-10-14T21:41:07.709Z,6.68
2022-10-14T21:43:37.629Z,6.50
2022-10-14T21:46:07.424Z,6.60
2022-10-14T21:48:35.349Z,5.97
2022-10-14T21:51:04.031Z,7.57
2022-10-14T21:53:32.063Z,7.72
2022-10-14T21:56:01.811Z,9.93
2022-10-14T21:58:30.302Z,7.72
2022-10-14T22:01:03.356Z,7.80
2022-10-14T22:03:31.518Z,8.68
2022-10-14T22:06:00.084Z,7.70
2022-10-14T22:08:30.852Z,8.70
2022-10-14T22:10:58.806Z,8.23
2022-10-14T22:13:29.037Z,7.78
2022-10-14T22:18:25.313Z,8.20
2022-10-14T22:21:03.758Z,8.00
2022-10-14T22:23:32.202Z,8.50
2022-10-14T22:26:01.064Z,7.80
2022-10-14T22:28:31.005Z,7.72
2022-10-14T22:31:05.296Z,8.07
2022-10-14T22:33:35.329Z,8.05
2022-10-14T22:36:08.834Z,7.53
2022-10-14T22:38:37.605Z,7.57
2022-10-14T22:41:06.937Z,7.03
2022-10-14T22:43:36.868Z,7.10
2022-10-14T22:46:07.599Z,7.78
2022-10-14T22:48:36.255Z,7.70
2022-10-14T22:51:05.162Z,8.05
2022-10-14T22:53:33.899Z,7.63
2022-10-14T22:56:02.045Z,8.32
2022-10-14T22:58:30.411Z,9.80
2022-10-14T23:01:06.533Z,10.30
2022-10-14T23:03:35.447Z,10.32
2022-10-14T23:06:04.316Z,9.50
2022-10-14T23:08:32.640Z,9.75
2022-10-14T23:11:01.202Z,9.73
2022-10-14T23:13:29.515Z,10.45
2022-10-14T23:15:59.593Z,10.50
2022-10-14T23:20:56.337Z,9.38
2022-10-14T23:23:24.215Z,9.38
2022-10-14T23:25:52.310Z,10.25
2022-10-14T23:28:20.195Z,9.75
2022-10-14T23:30:48.385Z,10.48
2022-10-14T23:33:17.620Z,10.20
2022-10-14T23:35:45.637Z,9.80
2022-10-14T23:38:13.580Z,10.50
2022-10-14T23:40:41.530Z,10.38
2022-10-14T23:43:09.506Z,10.05
2022-10-14T23:45:37.503Z,9.88
2022-10-14T23:48:05.754Z,9.13
2022-10-14T23:50:34.932Z,9.25
2022-10-14T23:53:02.820Z,7.97
2022-10-14T23:55:30.797Z,8.93
2022-10-14T23:57:58.612Z,9.48
